createdAt,value
2022-12-19T00:05:10.866Z,44.25
2022-12-19T00:07:39.944Z,43.13
2022-12-19T00:10:22.292Z,36.65
2022-12-19T00:26:45.765Z,43.42
2022-12-19T00:26:48.900Z,43.55
2022-12-19T00:30:04.589Z,44.63
2022-12-19T00:32:57.423Z,44.75
2022-12-19T01:13:48.417Z,43.45
2022-12-19T01:17:04.259Z,39.85
2022-12-19T01:20:06.043Z,37.00
2022-12-19T01:23:15.068Z,44.65
2022-12-19T01:26:07.997Z,44.15
2022-12-19T01:32:01.765Z,47.10
2022-12-19T01:34:44.844Z,50.17
2022-12-19T01:37:33.922Z,47.05
2022-12-19T01:40:30.233Z,46.47
2022-12-19T01:43:28.194Z,46.67
2022-12-19T01:50:38.991Z,51.72
2022-12-19T01:53:09.573Z,44.13
2022-12-19T01:56:11.300Z,48.33
2022-12-19T01:59:15.020Z,42.20
2022-12-19T02:02:57.719Z,45.92
2022-12-19T02:06:01.024Z,44.63
2022-12-19T02:09:07.600Z,45.97
2022-12-19T02:11:55.798Z,44.47
2022-12-19T02:14:43.936Z,43.22
2022-12-19T02:17:56.703Z,43.20
2022-12-19T02:21:06.927Z,44.90
2022-12-19T02:28:54.853Z,43.55
2022-12-19T02:31:35.603Z,41.33
2022-12-19T02:35:05.710Z,39.60
2022-12-19T02:38:03.211Z,44.78
2022-12-19T02:41:02.998Z,42.08
2022-12-19T02:43:58.791Z,39.50
2022-12-19T02:47:09.801Z,36.63
2022-12-19T02:49:44.643Z,39.90
2022-12-19T02:53:23.863Z,36.05
2022-12-19T02:56:30.141Z,44.58
2022-12-19T03:03:05.695Z,35.47
2022-12-19T03:07:16.256Z,38.47
2022-12-19T03:09:55.938Z,35.97
2022-12-19T03:13:28.463Z,34.70
2022-12-19T03:18:04.865Z,33.05
2022-12-19T03:21:42.496Z,38.28
2022-12-19T03:23:08.067Z,34.95
2022-12-19T03:33:12.027Z,43.95
2022-12-19T03:38:58.995Z,35.58
2022-12-19T03:42:04.436Z,35.40
2022-12-19T03:48:15.251Z,38.65
2022-12-19T03:51:03.341Z,41.22
2022-12-19T03:53:44.625Z,38.13
2022-12-19T03:56:23.157Z,40.40
2022-12-19T03:59:00.276Z,39.03
2022-12-19T04:01:35.972Z,36.47
2022-12-19T04:04:30.447Z,37.80
2022-12-19T04:07:13.425Z,39.15
2022-12-19T04:09:51.865Z,41.13
2022-12-19T04:16:41.828Z,44.67
2022-12-19T04:19:19.631Z,41.22
2022-12-19T04:22:04.966Z,42.75
2022-12-19T04:25:10.442Z,41.20
2022-12-19T04:27:42.971Z,49.47
2022-12-19T04:32:56.679Z,46.90
2022-12-19T04:35:39.285Z,47.28
2022-12-19T04:38:15.581Z,50.50
2022-12-19T04:40:50.141Z,54.53
2022-12-19T04:43:40.668Z,45.53
2022-12-19T04:46:09.183Z,46.13
2022-12-19T04:48:44.195Z,46.45
2022-12-19T04:51:22.385Z,52.60
2022-12-19T04:53:58.650Z,48.13
2022-12-19T04:57:15.503Z,58.30
2022-12-19T04:59:19.987Z,63.28
2022-12-19T05:01:57.518Z,56.85
2022-12-19T05:04:28.578Z,60.13
2022-12-19T05:07:04.164Z,67.78
2022-12-19T05:09:36.563Z,64.07
2022-12-19T05:12:33.587Z,64.78
2022-12-19T05:15:06.826Z,71.00
2022-12-19T05:29:37.633Z,63.55
2022-12-19T05:32:29.270Z,60.42
2022-12-19T05:35:27.198Z,64.28
2022-12-19T05:38:19.412Z,73.10
2022-12-19T05:44:13.681Z,72.55
2022-12-19T05:47:32.006Z,65.07
2022-12-19T05:50:45.283Z,68.93
2022-12-19T06:00:37.416Z,67.95
2022-12-19T06:03:40.889Z,63.88
2022-12-19T06:07:33.452Z,67.13
2022-12-19T06:14:06.315Z,79.78
2022-12-19T06:17:20.983Z,59.13
2022-12-19T06:27:44.237Z,57.47
2022-12-19T06:33:49.008Z,74.32
2022-12-19T06:36:41.682Z,55.83
2022-12-19T06:40:11.830Z,64.78
2022-12-19T06:43:38.866Z,64.28
2022-12-19T06:46:46.938Z,57.85
2022-12-19T06:49:45.801Z,58.95
2022-12-19T06:52:22.998Z,56.22
2022-12-19T06:59:26.190Z,60.55
2022-12-19T07:02:08.281Z,54.03
2022-12-19T07:05:16.583Z,59.97
2022-12-19T07:08:14.506Z,50.72
2022-12-19T07:10:59.849Z,53.13
2022-12-19T07:13:56.987Z,53.95
2022-12-19T07:18:15.182Z,54.92
2022-12-19T07:29:10.777Z,51.03
2022-12-19T08:26:35.812Z,39.55
2022-12-19T09:05:53.216Z,37.70
2022-12-19T09:07:34.615Z,35.63
2022-12-19T09:10:07.915Z,36.55
2022-12-19T09:12:36.604Z,39.13
2022-12-19T09:15:05.113Z,36.85
2022-12-19T09:17:33.527Z,36.67
2022-12-19T09:20:07.285Z,35.33
2022-12-19T09:22:35.167Z,34.13
2022-12-19T09:25:03.103Z,31.05
2022-12-19T09:28:01.300Z,35.05
2022-12-19T09:30:24.670Z,35.60
2022-12-19T09:32:53.564Z,36.05
2022-12-19T09:35:28.458Z,33.95
2022-12-19T09:38:00.341Z,35.35
2022-12-19T09:40:32.952Z,32.22
2022-12-19T09:43:11.964Z,33.15
2022-12-19T10:25:34.951Z,32.10
2022-12-19T10:29:32.807Z,39.03
2022-12-19T10:37:11.925Z,36.10
2022-12-19T10:39:52.609Z,38.63
2022-12-19T10:49:35.320Z,33.85
2022-12-19T10:56:20.032Z,31.98
2022-12-19T11:06:25.974Z,31.45
2022-12-19T11:17:52.074Z,41.00
2022-12-19T11:29:12.277Z,27.55
2022-12-19T11:29:54.354Z,31.70
2022-12-19T11:32:41.534Z,24.10
2022-12-19T12:03:20.244Z,29.23
2022-12-19T12:48:48.297Z,21.52
2022-12-19T13:06:53.809Z,20.17
2022-12-19T15:57:58.829Z,19.50
2022-12-19T17:37:12.531Z,13.40
2022-12-19T17:39:57.272Z,12.90
2022-12-19T17:45:40.517Z,19.23
2022-12-19T17:48:32.133Z,17.05
2022-12-19T17:51:00.933Z,17.80
2022-12-19T17:53:31.234Z,20.05
2022-12-19T17:56:00.208Z,15.10
2022-12-19T18:01:25.740Z,11.98
2022-12-19T18:03:56.180Z,14.82
2022-12-19T18:06:24.049Z,14.20
2022-12-19T18:08:53.241Z,15.05
2022-12-19T18:11:23.380Z,14.23
2022-12-19T18:13:52.085Z,19.85
2022-12-19T18:16:23.684Z,17.10
2022-12-19T18:18:51.559Z,15.07
2022-12-19T18:21:24.172Z,16.95
2022-12-19T18:23:53.361Z,19.95
2022-12-19T18:26:21.142Z,18.63
2022-12-19T18:28:49.073Z,15.95
2022-12-19T18:31:19.307Z,14.63
2022-12-19T18:33:50.819Z,12.88
2022-12-19T18:36:21.898Z,11.40
2022-12-19T18:38:50.286Z,13.23
2022-12-19T18:41:20.765Z,13.70
2022-12-19T18:43:49.257Z,16.13
2022-12-19T18:46:27.932Z,16.30
2022-12-19T18:48:55.820Z,12.43
2022-12-19T18:51:23.683Z,13.90
2022-12-19T18:53:51.734Z,14.10
2022-12-19T18:56:21.008Z,14.82
2022-12-19T18:58:49.369Z,15.32
2022-12-19T19:01:20.182Z,15.63
2022-12-19T19:03:52.974Z,16.23
2022-12-19T19:06:23.068Z,15.23
2022-12-19T19:08:52.052Z,13.20
2022-12-19T19:11:23.450Z,12.70
2022-12-19T19:13:51.559Z,12.85
2022-12-19T19:16:20.954Z,16.10
2022-12-19T19:18:53.053Z,13.68
2022-12-19T19:21:22.238Z,13.75
2022-12-19T19:23:55.211Z,13.18
2022-12-19T19:26:24.383Z,12.90
2022-12-19T19:28:52.861Z,12.45
2022-12-19T19:31:26.384Z,13.50
2022-12-19T19:33:59.324Z,14.52
2022-12-19T19:36:30.643Z,13.20
2022-12-19T19:38:59.181Z,11.57
2022-12-19T19:41:29.841Z,22.17
2022-12-19T19:43:58.673Z,51.58
2022-12-19T19:46:26.927Z,25.70
2022-12-19T19:48:56.618Z,17.65
2022-12-19T19:51:28.797Z,17.33
2022-12-19T19:56:24.386Z,11.95
2022-12-19T19:58:55.259Z,17.77
2022-12-19T20:01:23.079Z,12.98
2022-12-19T20:03:51.010Z,11.55
2022-12-19T20:06:19.218Z,13.05
2022-12-19T20:08:47.387Z,12.27
2022-12-19T20:11:15.252Z,17.42
2022-12-19T20:13:42.985Z,13.15
2022-12-19T20:16:13.695Z,11.73
2022-12-19T20:18:42.070Z,17.80
2022-12-19T20:21:13.126Z,25.50
2022-12-19T20:23:42.948Z,22.00
2022-12-19T20:26:11.752Z,38.75
2022-12-19T20:28:47.411Z,16.15
2022-12-19T20:31:18.367Z,22.20
2022-12-19T20:33:46.736Z,13.70
2022-12-19T20:36:15.364Z,25.70
2022-12-19T20:38:43.738Z,38.42
2022-12-19T20:41:11.553Z,30.67
2022-12-19T20:43:39.508Z,32.03
2022-12-19T20:46:09.769Z,29.13
2022-12-19T20:48:39.738Z,38.35
2022-12-19T20:51:08.549Z,27.63
2022-12-19T20:53:38.150Z,20.65
2022-12-19T20:56:07.435Z,26.20
2022-12-19T20:58:36.648Z,30.10
2022-12-19T21:01:06.663Z,19.33
2022-12-19T21:03:35.047Z,24.17
2022-12-19T21:06:04.685Z,25.27
2022-12-19T21:08:32.716Z,21.70
2022-12-19T21:11:01.441Z,17.67
2022-12-19T21:13:29.724Z,14.68
2022-12-19T21:15:59.272Z,11.60
2022-12-19T21:18:28.153Z,61.85
2022-12-19T21:20:56.839Z,17.83
2022-12-19T21:23:26.479Z,55.85
2022-12-19T21:25:58.837Z,32.60
2022-12-19T21:28:26.736Z,21.05
2022-12-19T21:30:59.317Z,12.57
2022-12-19T21:33:27.791Z,22.13
2022-12-19T21:35:55.621Z,17.40
2022-12-19T21:38:25.557Z,12.13
2022-12-19T21:40:53.394Z,19.48
2022-12-19T21:43:21.284Z,22.00
2022-12-19T21:45:49.016Z,24.73
2022-12-19T21:48:16.824Z,16.90
2022-12-19T21:50:44.699Z,16.08
2022-12-19T21:53:55.437Z,23.67
2022-12-19T21:56:48.489Z,18.75
2022-12-19T21:59:53.688Z,20.08
2022-12-19T22:04:49.925Z,22.95
2022-12-19T22:07:19.799Z,9.75
2022-12-19T22:09:49.358Z,11.63
2022-12-19T22:12:19.080Z,10.80
2022-12-19T22:14:47.494Z,14.10
2022-12-19T22:17:15.553Z,9.98
2022-12-19T22:19:43.561Z,11.43
2022-12-19T22:22:14.140Z,17.88
2022-12-19T22:24:42.391Z,15.07
2022-12-19T22:27:12.449Z,15.38
2022-12-19T22:29:42.222Z,18.90
2022-12-19T22:32:10.497Z,20.63
2022-12-19T22:34:39.772Z,12.40
2022-12-19T22:37:07.996Z,46.42
2022-12-19T22:39:39.718Z,20.27
2022-12-19T22:42:07.748Z,12.67
2022-12-19T22:44:37.047Z,8.38
2022-12-19T22:47:06.673Z,15.75
2022-12-19T22:49:38.889Z,8.05
2022-12-19T22:52:08.360Z,14.02
2022-12-19T22:54:48.624Z,14.95
2022-12-19T22:57:52.920Z,10.32
2022-12-19T23:00:42.302Z,16.27
2022-12-19T23:06:37.506Z,8.27
2022-12-19T23:12:29.385Z,9.80
2022-12-19T23:15:07.611Z,8.30
2022-12-19T23:19:12.924Z,7.53
2022-12-19T23:20:56.319Z,6.60
2022-12-19T23:23:41.348Z,14.65
2022-12-19T23:26:31.907Z,11.35
2022-12-19T23:29:13.801Z,9.75
2022-12-19T23:35:09.904Z,7.35
2022-12-19T23:37:51.882Z,6.18
2022-12-19T23:40:40.927Z,7.13
2022-12-19T23:43:10.256Z,8.40
2022-12-19T23:45:44.241Z,6.95
2022-12-19T23:48:21.664Z,7.00
2022-12-19T23:51:04.079Z,6.03
2022-12-19T23:53:53.778Z,5.88
2022-12-19T23:56:47.722Z,5.55
2022-12-19T23:59:21.737Z,6.35
